Time;durP1;ratioP1;P1;durP2;ratioP2;P2;SDS_P1;SDS_P2;PMS_P1;PMS_P2;Temp;Humidity;BMP_temperature;BMP_pressure;BME280_temperature;BME280_humidity;BME280_pressure;Samples;Min_cycle;Max_cycle;Signal;HPM_P1;HPM_P2
2023/04/04 00:02:26;;;;;;;4.05;1.90;;;1.30;1.00;;;;;;5130250;28;20042;-65
2023/04/04 00:04:57;;;;;;;2.80;1.92;;;1.30;99.90;;;;;;5132842;28;20054;-66
2023/04/04 00:07:33;;;;;;;2.55;1.83;;;1.30;1.00;;;;;;5116904;28;20280;-68
2023/04/04 00:10:07;;;;;;;2.10;1.55;;;1.30;1.00;;;;;;5115336;28;20034;-67
2023/04/04 00:12:38;;;;;;;;;;;1.30;1.00;;;;;;5117408;28;20053;-66
2023/04/04 00:15:15;;;;;;;2.45;1.67;;;1.20;1.00;;;;;;5140208;28;20197;-64
2023/04/04 00:17:49;;;;;;;3.03;1.92;;;1.10;1.00;;;;;;5127073;28;20031;-66
2023/04/04 00:20:25;;;;;;;2.38;2.17;;;1.10;1.00;;;;;;5112729;28;20044;-67
2023/04/04 00:22:57;;;;;;;2.35;1.83;;;1.20;1.00;;;;;;5101949;28;20511;-66
2023/04/04 00:25:32;;;;;;;2.33;2.03;;;1.20;1.00;;;;;;5108121;28;20096;-64
2023/04/04 00:28:03;;;;;;;2.53;2.00;;;1.20;99.90;;;;;;5125244;28;20235;-67
2023/04/04 00:30:38;;;;;;;6.07;2.42;;;1.10;1.00;;;;;;5124585;28;20030;-64
2023/04/04 00:33:11;;;;;;;2.05;1.40;;;1.00;1.00;;;;;;5140384;28;20035;-67
2023/04/04 00:35:42;;;;;;;2.07;1.57;;;0.90;99.90;;;;;;5129957;28;20035;-68
2023/04/04 00:38:13;;;;;;;1.90;1.45;;;0.90;1.00;;;;;;5143356;28;20399;-66
2023/04/04 00:40:50;;;;;;;4.97;1.77;;;0.90;1.00;;;;;;5154739;28;20594;-67
2023/04/04 00:43:22;;;;;;;4.72;1.85;;;0.90;99.90;;;;;;5143376;28;20042;-69
2023/04/04 00:45:53;;;;;;;3.58;1.77;;;0.90;1.00;;;;;;5140310;28;20030;-67
2023/04/04 00:48:25;;;;;;;4.30;1.83;;;0.80;99.90;;;;;;5121747;28;20023;-64
2023/04/04 00:51:01;;;;;;;3.35;1.55;;;0.90;99.90;;;;;;5152460;28;20580;-66
2023/04/04 00:53:33;;;;;;;1.38;1.27;;;0.90;99.90;;;;;;5100227;28;20031;-64
2023/04/04 00:56:10;;;;;;;2.08;1.70;;;0.90;1.00;;;;;;5118510;28;20035;-67
2023/04/04 00:58:45;;;;;;;3.15;2.03;;;0.90;1.00;;;;;;5156740;28;20600;-64
2023/04/04 01:01:17;;;;;;;2.45;1.90;;;0.90;1.00;;;;;;5209212;23;20044;-71
2023/04/04 01:03:55;;;;;;;2.80;1.67;;;0.80;1.00;;;;;;5155538;28;20060;-71
2023/04/04 01:06:29;;;;;;;2.17;1.75;;;0.80;1.00;;;;;;5166855;28;20057;-69
2023/04/04 01:09:00;;;;;;;;;;;0.80;1.00;;;;;;5153826;28;20034;-72
2023/04/04 01:11:34;;;;;;;5.40;2.10;;;0.80;1.00;;;;;;5175592;28;19916;-71
2023/04/04 01:14:05;;;;;;;2.28;1.95;;;0.80;45.60;;;;;;5154391;28;20302;-70
2023/04/04 01:16:37;;;;;;;2.50;1.48;;;0.80;44.00;;;;;;5167000;28;20048;-69
2023/04/04 01:19:18;;;;;;;3.05;2.20;;;0.80;45.00;;;;;;5129771;28;20042;-72
2023/04/04 01:21:54;;;;;;;2.72;1.95;;;0.80;25.90;;;;;;5132328;28;20052;-70
2023/04/04 01:24:29;;;;;;;1.55;1.45;;;0.80;34.10;;;;;;5156370;28;20111;-69
2023/04/04 01:27:01;;;;;;;2.85;1.92;;;0.80;27.80;;;;;;5158339;28;20042;-68
2023/04/04 01:29:32;;;;;;;2.97;2.20;;;0.70;29.60;;;;;;5157093;28;20254;-71
2023/04/04 01:32:18;;;;;;;1.88;1.60;;;0.70;27.50;;;;;;5182469;28;20035;-71
2023/04/04 01:35:11;;;;;;;6.07;2.28;;;0.70;22.30;;;;;;5175777;28;20042;-67
2023/04/04 01:37:55;;;;;;;2.78;1.92;;;0.70;22.90;;;;;;5170964;28;20045;-68
2023/04/04 01:40:36;;;;;;;2.75;2.28;;;0.60;26.50;;;;;;5157547;28;20026;-70
2023/04/04 01:43:09;;;;;;;2.22;1.60;;;0.70;24.30;;;;;;5137564;28;20176;-69
2023/04/04 01:45:41;;;;;;;2.40;1.77;;;0.60;25.80;;;;;;5135366;28;20034;-70
2023/04/04 01:48:17;;;;;;;2.70;1.63;;;0.70;26.00;;;;;;5143428;28;20261;-69
2023/04/04 01:50:49;;;;;;;1.70;1.40;;;0.70;39.10;;;;;;5156284;28;20049;-66
2023/04/04 01:53:20;;;;;;;2.20;1.65;;;0.70;31.90;;;;;;5167472;28;20334;-66
2023/04/04 01:55:53;;;;;;;3.50;1.70;;;0.60;28.30;;;;;;5155086;28;20383;-71
2023/04/04 01:58:26;;;;;;;4.10;2.08;;;0.70;25.50;;;;;;5156059;28;20029;-70
2023/04/04 02:00:57;;;;;;;2.50;1.63;;;0.70;10.40;;;;;;5166483;28;20440;-67
2023/04/04 02:03:34;;;;;;;3.75;2.08;;;0.70;14.20;;;;;;5174458;28;20830;-72
2023/04/04 02:06:06;;;;;;;4.28;1.77;;;0.90;18.70;;;;;;5151787;28;20051;-70
2023/04/04 02:08:40;;;;;;;2.00;1.73;;;0.90;7.50;;;;;;5140087;28;20041;-69
2023/04/04 02:11:15;;;;;;;;;;;1.00;10.40;;;;;;5174429;28;20032;-70
2023/04/04 02:13:46;;;;;;;2.53;1.30;;;1.00;13.80;;;;;;5124356;28;19941;-68
2023/04/04 02:16:18;;;;;;;5.80;2.10;;;1.10;12.30;;;;;;5170849;28;20051;-70
2023/04/04 02:18:49;;;;;;;1.58;1.33;;;1.10;14.80;;;;;;5156541;28;20033;-70
2023/04/04 02:21:24;;;;;;;2.58;2.17;;;1.10;14.90;;;;;;5173553;28;20033;-71
2023/04/04 02:23:55;;;;;;;3.50;1.77;;;1.20;27.00;;;;;;5157303;28;20373;-71
2023/04/04 02:26:31;;;;;;;2.50;1.60;;;1.20;16.50;;;;;;5188780;28;20030;-67
2023/04/04 02:29:03;;;;;;;2.08;1.63;;;1.20;14.70;;;;;;5167535;28;20038;-68
2023/04/04 02:31:40;;;;;;;2.42;1.58;;;1.20;16.10;;;;;;5178339;28;20036;-68
2023/04/04 02:34:16;;;;;;;1.70;1.60;;;1.10;18.70;;;;;;5140543;28;20472;-71
2023/04/04 02:36:55;;;;;;;1.65;1.55;;;1.10;39.10;;;;;;5140913;28;20043;-70
2023/04/04 02:39:27;;;;;;;2.25;1.70;;;1.00;41.10;;;;;;5171074;28;20029;-69
2023/04/04 02:42:08;;;;;;;2.20;1.50;;;1.00;41.80;;;;;;5164042;28;20038;-67
2023/04/04 02:44:43;;;;;;;5.78;2.00;;;0.90;22.20;;;;;;5181815;28;20035;-69
2023/04/04 02:47:16;;;;;;;4.22;1.77;;;0.80;29.50;;;;;;5159377;28;20036;-70
2023/04/04 02:49:48;;;;;;;1.77;1.63;;;0.80;35.30;;;;;;5174938;28;20044;-69
2023/04/04 02:52:21;;;;;;;2.72;1.90;;;0.70;20.60;;;;;;5183358;28;20280;-73
2023/04/04 02:54:55;;;;;;;3.33;1.88;;;0.70;19.70;;;;;;5146040;28;20056;-71
2023/04/04 02:57:32;;;;;;;2.25;1.73;;;0.70;35.60;;;;;;5172210;28;20040;-70
2023/04/04 03:00:04;;;;;;;2.55;1.77;;;0.60;15.00;;;;;;5172818;28;20047;-72
2023/04/04 03:02:43;;;;;;;2.55;1.55;;;0.60;38.90;;;;;;5162706;28;20060;-67
2023/04/04 03:05:14;;;;;;;4.70;1.50;;;0.50;31.20;;;;;;5171006;28;20253;-69
2023/04/04 03:07:57;;;;;;;2.80;1.60;;;0.50;28.10;;;;;;5192612;28;20017;-68
2023/04/04 03:10:29;;;;;;;5.05;2.05;;;0.40;39.90;;;;;;5176259;28;20317;-69
2023/04/04 03:13:01;;;;;;;2.53;1.73;;;0.50;9.20;;;;;;5175981;28;20048;-68
2023/04/04 03:15:33;;;;;;;3.55;1.67;;;0.40;1.00;;;;;;5174083;28;20039;-69
2023/04/04 03:18:07;;;;;;;3.00;1.80;;;0.40;19.90;;;;;;5159750;28;20037;-72
2023/04/04 03:20:41;;;;;;;2.40;1.70;;;0.40;6.40;;;;;;5185695;28;20029;-69
2023/04/04 03:23:21;;;;;;;2.33;1.83;;;0.30;1.00;;;;;;5184413;28;20033;-71
2023/04/04 03:25:53;;;;;;;1.58;1.30;;;0.30;3.20;;;;;;5201550;28;20025;-71
2023/04/04 03:28:25;;;;;;;3.50;2.10;;;0.30;1.00;;;;;;5159363;28;20040;-69
2023/04/04 03:30:58;;;;;;;2.00;1.77;;;0.30;1.00;;;;;;5189894;28;20034;-68
2023/04/04 03:33:36;;;;;;;3.78;2.05;;;0.20;5.40;;;;;;5177938;28;20045;-73
2023/04/04 03:36:13;;;;;;;3.45;1.77;;;0.20;1.00;;;;;;5176558;28;20021;-71
2023/04/04 03:38:47;;;;;;;2.17;1.58;;;0.10;1.00;;;;;;5159839;28;20133;-69
2023/04/04 03:41:27;;;;;;;1.95;1.75;;;0.10;1.00;;;;;;5197345;28;20707;-71
2023/04/04 03:44:05;;;;;;;2.78;1.73;;;0.10;1.00;;;;;;5224301;28;20067;-70
2023/04/04 03:46:39;;;;;;;2.40;1.65;;;0.00;1.00;;;;;;5223233;28;20025;-71
2023/04/04 03:49:12;;;;;;;2.13;1.80;;;0.00;1.00;;;;;;5197775;28;20037;-71
2023/04/04 03:51:47;;;;;;;2.38;1.60;;;0.00;1.00;;;;;;5178606;28;20060;-71
2023/04/04 03:54:21;;;;;;;3.22;2.40;;;0.00;1.00;;;;;;5179748;28;20408;-71
2023/04/04 03:56:52;;;;;;;1.95;1.48;;;0.00;1.00;;;;;;5172395;28;20047;-69
2023/04/04 03:59:24;;;;;;;3.10;1.65;;;-0.10;1.00;;;;;;5161719;28;20238;-68
2023/04/04 04:01:55;;;;;;;2.75;1.83;;;0.00;1.00;;;;;;5167463;28;20047;-70
2023/04/04 04:04:29;;;;;;;2.40;1.90;;;0.00;1.00;;;;;;5137534;28;20034;-71
2023/04/04 04:07:01;;;;;;;3.10;1.88;;;0.00;1.00;;;;;;5191789;28;20026;-72
2023/04/04 04:09:32;;;;;;;1.23;1.15;;;0.00;1.00;;;;;;5179978;28;20028;-66
2023/04/04 04:12:09;;;;;;;3.42;1.30;;;0.00;1.00;;;;;;5159315;28;20037;-71
2023/04/04 04:14:40;;;;;;;3.97;1.63;;;-0.10;1.00;;;;;;5176773;28;20028;-72
2023/04/04 04:17:14;;;;;;;3.35;1.70;;;-0.10;1.00;;;;;;5173993;28;20017;-66
2023/04/04 04:19:45;;;;;;;;;;;-0.10;22.30;;;;;;5175694;28;20025;-72
2023/04/04 04:22:17;;;;;;;2.38;1.80;;;-0.20;26.70;;;;;;5192935;28;20428;-70
2023/04/04 04:24:51;;;;;;;2.17;1.98;;;-0.10;20.00;;;;;;5171410;28;20036;-70
2023/04/04 04:27:23;;;;;;;2.90;1.65;;;0.00;25.60;;;;;;5167405;28;20342;-67
2023/04/04 04:29:56;;;;;;;5.22;1.60;;;-0.10;23.50;;;;;;5174663;28;20038;-69
2023/04/04 04:32:28;;;;;;;;;;;-0.10;9.60;;;;;;5198678;28;20044;-69
2023/04/04 04:34:59;;;;;;;2.35;1.70;;;-0.10;11.80;;;;;;5179140;28;20219;-69
2023/04/04 04:37:32;;;;;;;2.05;1.55;;;-0.10;9.90;;;;;;5149877;28;20238;-70
2023/04/04 04:40:09;;;;;;;2.65;1.67;;;-0.10;19.00;;;;;;5197956;28;20025;-71
2023/04/04 04:42:47;;;;;;;2.08;1.40;;;-0.10;22.80;;;;;;5215472;28;20068;-71
2023/04/04 04:45:20;;;;;;;2.42;1.90;;;-0.10;18.70;;;;;;5190167;28;20137;-69
2023/04/04 04:47:57;;;;;;;3.15;2.10;;;0.00;8.00;;;;;;5180398;28;20033;-70
2023/04/04 04:50:30;;;;;;;2.17;1.90;;;-0.10;1.00;;;;;;5163502;28;20035;-72
2023/04/04 04:53:04;;;;;;;3.17;2.08;;;-0.10;1.00;;;;;;5167468;28;20297;-70
2023/04/04 04:55:37;;;;;;;3.15;2.30;;;-0.10;1.00;;;;;;5162953;28;20072;-70
2023/04/04 04:58:11;;;;;;;3.17;2.05;;;-0.10;1.00;;;;;;5197299;28;20033;-72
2023/04/04 05:00:45;;;;;;;2.58;1.65;;;0.00;1.00;;;;;;5171469;28;20040;-67
2023/04/04 05:03:17;;;;;;;2.38;1.63;;;0.00;1.00;;;;;;5179120;28;20053;-72
2023/04/04 05:05:51;;;;;;;2.80;1.60;;;0.10;1.00;;;;;;5178390;28;20507;-66
2023/04/04 05:08:27;;;;;;;2.97;2.15;;;0.10;1.00;;;;;;5178295;28;20037;-71
2023/04/04 05:10:58;;;;;;;4.03;1.85;;;0.20;1.00;;;;;;5194591;28;20241;-70
2023/04/04 05:13:29;;;;;;;1.95;1.67;;;0.20;1.00;;;;;;5218002;28;20031;-69
2023/04/04 05:16:03;;;;;;;3.13;2.22;;;0.30;1.00;;;;;;5210669;28;20028;-70
2023/04/04 05:18:35;;;;;;;2.88;2.15;;;0.30;1.00;;;;;;5181791;28;20039;-69
2023/04/04 05:21:12;;;;;;;5.30;1.88;;;0.30;1.00;;;;;;5181472;28;20033;-70
2023/04/04 05:23:44;;;;;;;2.13;1.58;;;0.40;1.00;;;;;;5177174;28;20029;-70
2023/04/04 05:26:15;;;;;;;1.65;1.50;;;0.50;1.00;;;;;;5178189;28;20042;-71
2023/04/04 05:28:46;;;;;;;2.15;1.83;;;0.70;1.00;;;;;;5196195;28;20033;-69
2023/04/04 05:31:20;;;;;;;2.35;1.52;;;0.70;1.00;;;;;;5204861;28;20044;-70
2023/04/04 05:33:52;;;;;;;2.13;1.88;;;0.70;1.00;;;;;;5193376;28;20033;-71
2023/04/04 05:36:24;;;;;;;2.00;1.48;;;0.80;1.00;;;;;;5163008;28;20044;-73
2023/04/04 05:38:58;;;;;;;1.55;1.20;;;0.80;1.00;;;;;;5161261;28;20362;-70
2023/04/04 05:41:32;;;;;;;3.00;2.13;;;0.90;1.00;;;;;;5177038;28;20043;-71
2023/04/04 05:44:04;;;;;;;2.03;1.48;;;0.90;1.00;;;;;;5192904;28;20025;-66
2023/04/04 05:46:37;;;;;;;2.92;1.75;;;1.00;1.00;;;;;;5205178;28;20367;-69
2023/04/04 05:49:18;;;;;;;2.53;1.42;;;1.10;1.00;;;;;;5206649;28;20045;-72
2023/04/04 05:51:55;;;;;;;5.65;1.50;;;1.20;1.00;;;;;;5161387;28;20038;-68
2023/04/04 05:54:26;;;;;;;7.75;1.50;;;1.20;1.00;;;;;;5199132;28;20045;-70
2023/04/04 05:57:02;;;;;;;4.05;2.20;;;1.20;1.00;;;;;;5190227;28;20570;-68
2023/04/04 05:59:33;;;;;;;4.45;1.60;;;1.30;1.00;;;;;;5178304;28;20369;-70
2023/04/04 06:02:07;;;;;;;2.67;1.67;;;1.20;1.00;;;;;;5189800;28;20059;-72
2023/04/04 06:04:43;;;;;;;2.60;1.42;;;1.30;1.00;;;;;;5166348;28;20061;-70
2023/04/04 06:07:20;;;;;;;1.20;1.10;;;1.20;1.00;;;;;;5171743;28;20036;-70
2023/04/04 06:09:51;;;;;;;3.03;1.42;;;1.30;1.00;;;;;;5180335;28;20044;-70
2023/04/04 06:12:24;;;;;;;2.17;1.27;;;1.30;1.00;;;;;;5171971;28;20030;-71
2023/04/04 06:14:55;;;;;;;2.05;1.30;;;1.20;3.30;;;;;;5188337;28;20049;-72
2023/04/04 06:17:29;;;;;;;2.80;1.40;;;1.20;1.00;;;;;;5153066;28;20038;-70
2023/04/04 06:20:03;;;;;;;1.90;1.23;;;1.20;1.00;;;;;;5201875;28;20341;-71
2023/04/04 06:22:37;;;;;;;1.70;1.40;;;1.30;1.00;;;;;;5179942;28;20043;-70
2023/04/04 06:25:10;;;;;;;1.40;1.30;;;1.50;1.00;;;;;;5219214;28;20042;-70
2023/04/04 06:27:42;;;;;;;1.65;1.48;;;1.50;1.00;;;;;;5202787;28;20034;-73
2023/04/04 06:30:17;;;;;;;2.25;1.40;;;1.70;1.00;;;;;;5187659;28;20032;-71
2023/04/04 06:32:49;;;;;;;2.95;1.60;;;1.60;1.00;;;;;;5194638;28;20043;-72
2023/04/04 06:35:23;;;;;;;2.08;1.40;;;1.70;1.00;;;;;;5173482;28;20045;-70
2023/04/04 06:37:55;;;;;;;1.17;1.08;;;1.50;1.00;;;;;;5208542;28;20378;-70
2023/04/04 06:40:28;;;;;;;3.05;1.85;;;1.60;1.00;;;;;;5175944;28;20022;-69
2023/04/04 06:43:00;;;;;;;1.37;1.27;;;1.80;1.00;;;;;;5187985;28;20638;-71
2023/04/04 06:45:34;;;;;;;1.63;1.52;;;1.80;2.50;;;;;;5152467;28;20352;-71
2023/04/04 06:48:07;;;;;;;1.77;1.50;;;1.80;9.50;;;;;;5192969;28;20067;-72
2023/04/04 06:50:39;;;;;;;3.93;1.67;;;1.70;4.30;;;;;;5194402;28;20041;-69
2023/04/04 06:53:13;;;;;;;2.13;1.38;;;1.70;13.30;;;;;;5190467;28;20404;-70
2023/04/04 06:55:44;;;;;;;2.67;1.95;;;1.80;2.40;;;;;;5158651;28;20033;-69
2023/04/04 06:58:18;;;;;;;3.35;1.35;;;1.80;8.10;;;;;;5191982;28;20470;-71
2023/04/04 07:00:50;;;;;;;2.83;1.52;;;1.50;18.40;;;;;;5204254;28;20064;-73
2023/04/04 07:03:24;;;;;;;2.17;1.40;;;1.60;1.20;;;;;;5178034;28;20141;-71
2023/04/04 07:05:56;;;;;;;2.42;1.60;;;1.80;1.00;;;;;;5202916;28;20049;-71
2023/04/04 07:08:32;;;;;;;1.83;1.50;;;1.90;9.90;;;;;;5197367;28;20033;-70
2023/04/04 07:11:06;;;;;;;1.73;1.48;;;1.90;19.60;;;;;;5191841;28;20021;-72
2023/04/04 07:13:37;;;;;;;1.95;1.63;;;1.80;12.40;;;;;;5161328;28;20036;-72
2023/04/04 07:16:10;;;;;;;2.28;1.42;;;1.80;13.80;;;;;;5191401;28;20225;-69
2023/04/04 07:18:43;;;;;;;2.28;1.60;;;1.90;15.10;;;;;;5178520;28;20501;-71
2023/04/04 07:21:16;;;;;;;2.58;1.50;;;1.90;15.10;;;;;;5192372;28;20417;-71
2023/04/04 07:23:47;;;;;;;1.67;1.48;;;2.40;32.40;;;;;;5188820;28;20041;-70
2023/04/04 07:26:18;;;;;;;2.00;1.17;;;2.40;13.90;;;;;;5205185;28;20338;-70
2023/04/04 07:28:52;;;;;;;1.38;1.17;;;2.20;29.80;;;;;;5190666;28;20040;-72
2023/04/04 07:31:26;;;;;;;1.27;1.17;;;2.40;21.80;;;;;;5169538;28;20025;-71
2023/04/04 07:33:58;;;;;;;2.97;1.60;;;2.50;7.30;;;;;;5161553;28;20028;-71
2023/04/04 07:36:32;;;;;;;1.73;1.42;;;2.60;26.20;;;;;;5157621;28;20041;-70
2023/04/04 07:39:03;;;;;;;1.38;1.27;;;2.60;4.60;;;;;;5188976;28;20021;-68
2023/04/04 07:41:37;;;;;;;1.55;1.35;;;2.40;18.50;;;;;;5207360;28;20022;-71
2023/04/04 07:44:14;;;;;;;3.72;1.65;;;2.50;33.00;;;;;;5157303;28;20029;-72
2023/04/04 07:46:48;;;;;;;4.82;1.50;;;2.40;29.40;;;;;;5186197;28;20048;-69
2023/04/04 07:49:24;;;;;;;4.05;1.73;;;2.30;33.30;;;;;;5186510;28;20038;-73
2023/04/04 07:51:55;;;;;;;1.35;1.20;;;2.30;34.50;;;;;;5162175;28;20022;-69
2023/04/04 07:54:27;;;;;;;1.63;1.33;;;2.50;35.80;;;;;;5226479;28;20312;-71
2023/04/04 07:56:58;;;;;;;2.53;2.00;;;2.70;25.70;;;;;;5202639;28;20035;-73
2023/04/04 07:59:30;;;;;;;1.58;1.40;;;2.80;29.50;;;;;;5194437;28;20038;-71
2023/04/04 08:02:06;;;;;;;1.85;1.40;;;3.10;41.90;;;;;;5189126;28;20077;-74
2023/04/04 08:04:37;;;;;;;1.63;1.30;;;3.60;37.10;;;;;;5197503;28;20052;-70
2023/04/04 08:07:08;;;;;;;1.70;1.30;;;4.00;42.00;;;;;;5205715;28;20298;-66
2023/04/04 08:09:42;;;;;;;1.75;1.65;;;4.30;39.00;;;;;;5207384;28;20448;-72
2023/04/04 08:12:13;;;;;;;1.63;1.42;;;3.90;42.70;;;;;;5197156;28;20029;-68
2023/04/04 08:14:47;;;;;;;1.45;1.10;;;3.90;44.40;;;;;;5181517;28;20037;-70
2023/04/04 08:17:19;;;;;;;4.68;1.40;;;3.80;44.10;;;;;;5192037;28;20041;-69
2023/04/04 08:19:52;;;;;;;2.42;1.30;;;3.60;43.80;;;;;;5193533;28;20033;-68
2023/04/04 08:22:27;;;;;;;1.63;1.50;;;3.50;45.90;;;;;;5164132;28;20065;-74
2023/04/04 08:25:03;;;;;;;3.63;1.70;;;3.70;49.80;;;;;;5197766;28;20033;-73
2023/04/04 08:27:35;;;;;;;1.42;1.20;;;4.10;47.40;;;;;;5182562;28;20502;-72
2023/04/04 08:30:08;;;;;;;2.65;1.30;;;3.70;51.40;;;;;;5175718;28;20052;-73
2023/04/04 08:32:43;;;;;;;2.30;1.50;;;3.30;47.90;;;;;;5198607;28;20040;-71
2023/04/04 08:35:14;;;;;;;3.67;1.77;;;3.40;43.50;;;;;;5187024;28;20551;-70
2023/04/04 08:37:45;;;;;;;5.38;1.70;;;3.70;29.30;;;;;;5188652;28;20032;-68
2023/04/04 08:40:22;;;;;;;1.90;1.33;;;3.90;59.70;;;;;;5171252;28;20044;-69
2023/04/04 08:42:54;;;;;;;3.55;1.73;;;3.70;53.60;;;;;;5193058;28;20064;-71
2023/04/04 08:45:30;;;;;;;5.47;2.15;;;3.70;80.30;;;;;;5161731;28;20052;-69
2023/04/04 08:48:03;;;;;;;1.92;1.42;;;3.80;68.00;;;;;;5180653;28;20041;-71
2023/04/04 08:50:42;;;;;;;2.10;1.60;;;3.50;49.00;;;;;;5184930;28;20187;-68
2023/04/04 08:53:17;;;;;;;1.73;1.17;;;3.20;90.90;;;;;;5175480;28;20041;-70
2023/04/04 08:55:52;;;;;;;2.45;1.45;;;3.10;73.20;;;;;;5188498;28;20426;-72
2023/04/04 08:58:23;;;;;;;1.73;1.13;;;2.80;85.20;;;;;;5194432;28;20052;-72
2023/04/04 09:00:57;;;;;;;2.15;1.33;;;2.90;47.90;;;;;;5191413;28;20049;-69
2023/04/04 09:03:35;;;;;;;3.10;1.50;;;2.90;65.10;;;;;;5155949;28;20045;-66
2023/04/04 09:06:07;;;;;;;1.90;1.40;;;3.40;67.50;;;;;;5170653;28;20056;-70
2023/04/04 09:08:40;;;;;;;1.67;1.52;;;3.70;68.90;;;;;;5182073;28;20048;-69
2023/04/04 09:11:15;;;;;;;1.67;1.58;;;3.60;47.80;;;;;;5212549;28;20560;-69
2023/04/04 09:13:48;;;;;;;2.40;1.75;;;4.50;57.10;;;;;;5166233;28;20045;-73
2023/04/04 09:16:23;;;;;;;1.88;1.60;;;4.60;71.10;;;;;;5176814;28;20029;-70
2023/04/04 09:18:54;;;;;;;;;;;4.20;47.40;;;;;;5164213;28;20154;-69
2023/04/04 09:21:28;;;;;;;2.85;1.50;;;3.90;75.00;;;;;;5208442;28;19927;-69
2023/04/04 09:24:01;;;;;;;4.50;1.45;;;3.70;59.50;;;;;;5176122;28;20037;-69
2023/04/04 09:26:56;;;;;;;2.78;1.88;;;3.70;78.20;;;;;;5160020;28;20034;-71
2023/04/04 09:29:27;;;;;;;1.57;1.47;;;3.90;72.40;;;;;;5192832;28;20031;-70
2023/04/04 09:31:58;;;;;;;3.30;1.48;;;4.30;72.40;;;;;;5208338;28;20045;-68
2023/04/04 09:34:30;;;;;;;2.33;1.67;;;4.30;76.80;;;;;;5192081;28;20295;-71
2023/04/04 09:37:03;;;;;;;3.15;1.73;;;4.10;73.00;;;;;;5205467;28;20253;-72
2023/04/04 09:39:37;;;;;;;2.13;1.50;;;4.20;1.00;;;;;;5184329;28;20034;-70
2023/04/04 09:42:09;;;;;;;3.88;1.75;;;4.60;30.30;;;;;;5156853;28;20025;-69
2023/04/04 09:44:43;;;;;;;3.42;1.85;;;5.10;30.70;;;;;;5193869;28;20017;-69
2023/04/04 09:47:25;;;;;;;2.30;1.30;;;5.50;39.60;;;;;;5205543;28;20018;-68
2023/04/04 09:50:00;;;;;;;1.77;1.35;;;4.80;1.00;;;;;;5172590;28;20040;-69
2023/04/04 09:52:34;;;;;;;2.05;1.52;;;4.10;1.00;;;;;;5172342;28;20244;-72
2023/04/04 09:55:08;;;;;;;;;;;4.10;1.00;;;;;;5191261;28;20025;-72
2023/04/04 09:57:45;;;;;;;1.75;1.45;;;4.20;1.20;;;;;;5205192;28;19904;-69
2023/04/04 10:00:19;;;;;;;2.15;1.30;;;4.40;1.00;;;;;;5169746;28;20162;-71
2023/04/04 10:02:51;;;;;;;1.45;1.35;;;4.50;1.00;;;;;;5191648;28;20033;-70
2023/04/04 10:05:26;;;;;;;1.67;1.58;;;4.60;23.50;;;;;;5180016;28;20038;-70
2023/04/04 10:08:00;;;;;;;;;;;4.70;1.00;;;;;;5192154;28;20467;-68
2023/04/04 10:10:34;;;;;;;2.53;1.50;;;4.30;1.00;;;;;;5192977;28;19919;-70
2023/04/04 10:13:07;;;;;;;2.60;1.70;;;4.80;1.00;;;;;;5190457;28;20039;-71
2023/04/04 10:15:40;;;;;;;2.45;1.92;;;4.50;1.00;;;;;;5139431;28;20366;-70
2023/04/04 10:18:13;;;;;;;2.25;1.50;;;4.30;1.00;;;;;;5157453;28;20495;-73
2023/04/04 10:20:47;;;;;;;2.13;1.55;;;4.80;43.00;;;;;;5189619;28;20059;-67
2023/04/04 10:23:22;;;;;;;2.10;1.50;;;5.80;34.10;;;;;;5157550;28;20045;-74
2023/04/04 10:25:54;;;;;;;;;;;6.30;1.00;;;;;;5174254;28;20564;-67
2023/04/04 10:28:28;;;;;;;2.28;1.58;;;5.60;1.00;;;;;;5157142;28;19939;-70
2023/04/04 10:31:23;;;;;;;2.22;1.73;;;5.30;1.00;;;;;;5172005;28;20345;-67
2023/04/04 10:34:21;;;;;;;1.67;1.58;;;5.60;2.30;;;;;;5216531;28;20061;-73
2023/04/04 10:37:13;;;;;;;2.40;1.92;;;6.00;1.00;;;;;;5211803;28;20029;-73
2023/04/04 10:39:56;;;;;;;4.15;1.98;;;5.80;1.00;;;;;;5173641;28;20029;-71
2023/04/04 10:42:32;;;;;;;2.22;1.25;;;5.80;1.00;;;;;;5173100;28;20048;-71
2023/04/04 10:45:11;;;;;;;3.60;1.73;;;6.30;25.00;;;;;;5189642;28;20041;-74
2023/04/04 10:47:49;;;;;;;3.20;1.60;;;6.50;18.40;;;;;;5204398;28;20033;-69
2023/04/04 10:50:23;;;;;;;3.58;1.48;;;5.60;3.70;;;;;;5170808;28;20045;-66
2023/04/04 10:53:00;;;;;;;2.25;1.85;;;6.30;49.70;;;;;;5157057;28;20049;-69
2023/04/04 10:55:39;;;;;;;1.75;1.48;;;7.20;63.10;;;;;;5165567;28;20044;-71
2023/04/04 10:58:15;;;;;;;1.95;1.25;;;7.40;95.10;;;;;;5194138;28;20025;-67
2023/04/04 11:00:54;;;;;;;2.08;1.48;;;6.80;13.70;;;;;;5203460;28;20479;-71
2023/04/04 11:03:28;;;;;;;2.30;1.83;;;6.60;1.00;;;;;;5190825;28;20039;-69
2023/04/04 11:06:00;;;;;;;4.30;1.67;;;6.30;1.00;;;;;;5162137;28;20040;-72
2023/04/04 11:08:36;;;;;;;3.47;2.67;;;6.40;1.00;;;;;;5160368;28;20260;-68
2023/04/04 11:11:07;;;;;;;1.77;1.67;;;6.30;19.60;;;;;;5206014;28;20273;-70
2023/04/04 11:13:40;;;;;;;1.63;1.50;;;5.90;1.00;;;;;;5189050;28;20037;-70
2023/04/04 11:16:18;;;;;;;6.50;1.67;;;6.10;1.00;;;;;;5187663;28;20028;-69
2023/04/04 11:18:53;;;;;;;5.72;1.90;;;6.60;1.00;;;;;;5191418;28;20027;-68
2023/04/04 11:21:31;;;;;;;3.20;1.98;;;6.20;1.00;;;;;;5177079;28;20212;-73
2023/04/04 11:24:05;;;;;;;1.80;1.58;;;7.20;99.90;;;;;;5165359;28;20148;-67
2023/04/04 11:26:41;;;;;;;3.78;1.48;;;7.50;99.90;;;;;;5186490;28;20033;-71
2023/04/04 11:29:23;;;;;;;1.67;1.42;;;7.20;99.90;;;;;;5168476;28;20033;-70
2023/04/04 11:31:59;;;;;;;2.00;1.70;;;7.30;99.90;;;;;;5180561;28;20175;-69
2023/04/04 11:34:31;;;;;;;1.98;1.60;;;8.10;99.90;;;;;;5170205;28;20039;-70
2023/04/04 11:37:16;;;;;;;2.15;1.67;;;8.30;1.00;;;;;;5153878;28;20025;-69
2023/04/04 11:39:56;;;;;;;;;;;7.60;1.00;;;;;;5169868;28;20044;-71
2023/04/04 11:42:39;;;;;;;3.55;1.60;;;7.00;1.00;;;;;;5212646;28;20109;-68
2023/04/04 11:45:18;;;;;;;2.58;2.00;;;7.30;99.90;;;;;;5186486;28;20034;-70
2023/04/04 11:47:50;;;;;;;6.00;1.60;;;7.80;1.00;;;;;;5158859;28;20417;-68
2023/04/04 11:50:29;;;;;;;4.30;1.83;;;8.40;99.90;;;;;;5204663;28;20030;-69
2023/04/04 11:53:05;;;;;;;6.70;2.17;;;8.80;99.90;;;;;;5203299;28;20037;-71
2023/04/04 11:55:46;;;;;;;2.38;1.70;;;7.50;99.90;;;;;;5204696;28;20072;-69
2023/04/04 11:58:20;;;;;;;2.63;1.77;;;7.60;99.90;;;;;;5190403;28;20311;-70
2023/04/04 12:00:56;;;;;;;3.67;2.33;;;8.70;1.00;;;;;;5185365;28;20037;-71
2023/04/04 12:03:28;;;;;;;2.15;1.60;;;8.30;1.00;;;;;;5181015;28;20037;-70
2023/04/04 12:06:00;;;;;;;2.53;1.65;;;8.00;1.00;;;;;;5209098;28;20029;-72
2023/04/04 12:08:36;;;;;;;2.10;1.63;;;7.70;1.00;;;;;;5193962;28;20314;-67
2023/04/04 12:11:14;;;;;;;4.15;1.50;;;7.70;1.00;;;;;;5200951;28;20033;-67
2023/04/04 12:13:49;;;;;;;1.88;1.48;;;7.70;1.00;;;;;;5201270;28;20070;-70
2023/04/04 12:16:24;;;;;;;3.05;1.70;;;7.50;1.00;;;;;;5168877;28;20469;-71
2023/04/04 12:19:11;;;;;;;1.58;1.27;;;8.20;99.90;;;;;;5189770;28;20219;-69
2023/04/04 12:21:47;;;;;;;3.28;1.70;;;7.60;99.90;;;;;;5209621;28;20052;-67
2023/04/04 12:24:18;;;;;;;2.95;1.70;;;7.70;99.90;;;;;;5172751;28;20047;-70
2023/04/04 12:26:51;;;;;;;2.53;1.75;;;7.20;1.00;;;;;;5157814;28;20219;-72
2023/04/04 12:29:26;;;;;;;3.03;1.67;;;8.10;1.00;;;;;;5193089;28;20018;-69
2023/04/04 12:32:00;;;;;;;2.28;2.00;;;8.00;57.30;;;;;;5177812;28;20033;-70
2023/04/04 12:34:40;;;;;;;2.70;1.90;;;8.80;74.80;;;;;;5194116;28;20023;-69
2023/04/04 12:37:15;;;;;;;4.18;1.60;;;8.30;59.20;;;;;;5192826;28;20042;-68
2023/04/04 12:39:51;;;;;;;1.98;1.60;;;8.60;1.00;;;;;;5208155;28;20037;-71
2023/04/04 12:42:24;;;;;;;3.50;2.05;;;9.20;99.90;;;;;;5196922;28;20029;-72
2023/04/04 12:44:56;;;;;;;2.35;1.77;;;8.90;1.00;;;;;;5184499;28;20045;-72
2023/04/04 12:47:30;;;;;;;2.10;1.58;;;8.30;1.00;;;;;;5187172;28;20041;-72
2023/04/04 12:50:01;;;;;;;1.70;1.60;;;9.40;1.00;;;;;;5180535;28;20033;-69
2023/04/04 12:52:32;;;;;;;1.70;1.60;;;9.00;1.00;;;;;;5186463;28;20221;-73
2023/04/04 12:55:12;;;;;;;2.47;1.92;;;8.30;1.00;;;;;;5214118;28;20047;-72
2023/04/04 12:57:45;;;;;;;1.65;1.45;;;8.30;1.00;;;;;;5199022;28;20027;-69
2023/04/04 13:00:18;;;;;;;2.78;1.73;;;8.10;1.00;;;;;;5182002;28;20039;-72
2023/04/04 13:02:55;;;;;;;5.45;1.90;;;8.70;81.00;;;;;;5163148;28;20634;-69
2023/04/04 13:05:26;;;;;;;1.90;1.70;;;8.80;99.90;;;;;;5194192;28;20058;-70
2023/04/04 13:08:11;;;;;;;1.90;1.70;;;9.00;27.00;;;;;;5198181;28;20042;-73
2023/04/04 13:11:01;;;;;;;2.58;1.60;;;8.90;99.90;;;;;;5190510;28;20319;-71
2023/04/04 13:13:42;;;;;;;2.22;1.50;;;8.80;44.50;;;;;;5179225;28;20328;-70
2023/04/04 13:16:30;;;;;;;2.38;1.58;;;9.30;1.00;;;;;;5193029;28;20626;-69
2023/04/04 13:19:02;;;;;;;4.13;1.92;;;10.30;99.90;;;;;;5191658;28;20030;-71
2023/04/04 13:21:33;;;;;;;3.83;2.00;;;10.10;99.90;;;;;;5195273;28;20227;-70
2023/04/04 13:24:07;;;;;;;4.60;2.05;;;9.30;30.40;;;;;;5212409;28;20048;-71
2023/04/04 13:26:43;;;;;;;4.93;2.60;;;10.30;99.90;;;;;;5194847;28;20045;-73
2023/04/04 13:29:15;;;;;;;2.17;1.98;;;10.50;99.90;;;;;;5197066;28;20026;-73
2023/04/04 13:31:46;;;;;;;3.25;2.05;;;9.70;99.90;;;;;;5179162;28;20029;-69
2023/04/04 13:34:21;;;;;;;2.78;2.10;;;9.30;99.90;;;;;;5197475;28;20025;-71
2023/04/04 13:36:55;;;;;;;2.63;1.90;;;9.00;99.90;;;;;;5178718;28;20041;-70
2023/04/04 13:39:26;;;;;;;3.17;2.03;;;9.30;99.90;;;;;;5163038;28;20496;-69
2023/04/04 13:41:57;;;;;;;2.83;1.42;;;8.70;99.90;;;;;;5195745;28;20029;-72
2023/04/04 13:44:29;;;;;;;2.67;2.10;;;9.50;99.90;;;;;;5178020;28;20234;-68